Regal Princess — ZCEK6 — position and weather

sailwx.info

Track history (hours):
 
Tides and Currents Weather Stations Pressure Air Temp Water Temp Dewpoint Dewpoint Depression Visibility Wind Speed Wind Dir Waves Ship Positions

Regal Princess

Last reported at 2017-Dec-18 08:00 UTC. Time now 2017-Dec-18 12:35 UTC.
Position N 25°36' W 076°30'.

Length 330 m; draft 8.5 m.

Type: Ship. MMSI: 310674000.

Wind from 060 at 16 knots

Barometer 1021.9 mb
Air temperature 25.0 ° C
Visibility: greater than 10.8 NM
Dewpoint 21.2 ° C
Water temperature 25.4 ° C

Date/timePositionNaut miles runAvg speedWind from/ knotsBaromVisibWave heightAir tempDewpointWater temp
2017-Dec-18 08:00N 25°36' W 076°30'10020.0 060 / 161021.910.8 25.021.225.4
2017-Dec-18 03:00N 26°00' W 078°18'6019.4 080 / 161023.910.8 25.021.225.4
2017-Dec-17 23:52N 26°10' W 079°24'719.5
2017-Dec-17 23:30N 26°09' W 079°32'1019.2
2017-Dec-17 23:00N 26°08' W 079°43'918.8
2017-Dec-17 22:30N 26°07' W 079°53'816.5
2017-Dec-17 22:00N 26°06' W 080°03'4 8.2
2017-Dec-17 21:30N 26°06' W 080°07'0 0.3
2017-Dec-17 20:58N 26°06' W 080°07'0 0.0
2017-Dec-17 20:28N 26°06' W 080°07'0 0.0
2017-Dec-17 19:58N 26°06' W 080°07'0 0.0
2017-Dec-17 19:28N 26°06' W 080°07'0 0.0
2017-Dec-17 18:58N 26°06' W 080°07'0 0.0
2017-Dec-17 18:28N 26°06' W 080°07'0 0.0
2017-Dec-17 17:58N 26°06' W 080°07'0 0.0
2017-Dec-17 17:28N 26°06' W 080°07'0 0.0
2017-Dec-17 16:58N 26°06' W 080°07'0 0.0
2017-Dec-17 16:28N 26°06' W 080°07'0 0.0
2017-Dec-17 15:58N 26°06' W 080°07'0 0.0
2017-Dec-17 15:28N 26°06' W 080°07'0 0.0
2017-Dec-17 14:58N 26°06' W 080°07'0 0.0
2017-Dec-17 14:28N 26°06' W 080°07'0 0.0
2017-Dec-17 13:58N 26°06' W 080°07'0 0.0
2017-Dec-17 13:28N 26°06' W 080°07'0 0.0
2017-Dec-17 12:58N 26°06' W 080°07'0 0.0
2017-Dec-17 12:29N 26°06' W 080°07'0 0.6
2017-Dec-17 12:00N 26°05' W 080°07'4 7.9
2017-Dec-17 11:30N 26°06' W 080°03'612.2
2017-Dec-17 11:01N 26°06' W 079°56'714.0
2017-Dec-17 10:30N 26°08' W 079°48'713.7
2017-Dec-17 10:00N 26°09' W 079°41'713.7
2017-Dec-17 09:30N 26°11' W 079°33'817.1
2017-Dec-17 09:00N 26°13' W 079°24'23132.9
2017-Dec-17 02:00N 23°30' W 076°24'10114.4 040 / 231021.610.8 24.019.425.0
2017-Dec-16 19:00N 23°48' W 074°36'39817.3 050 / 141018.510.8 26.022.327.0
2017-Dec-15 20:00N 21°00' W 068°06'13218.9 070 / 151017.510.8 26.022.327.0
2017-Dec-15 13:00N 20°00' W 066°00'17120.2 070 / 151019.810.8 26.022.327.0
2017-Dec-15 04:32N 18°16' W 063°37'119.4
2017-Dec-15 04:28N 18°15' W 063°36'1020.3
2017-Dec-15 03:59N 18°08' W 063°28'2919.8
2017-Dec-15 02:30N 17°50' W 063°03'4420.2
2017-Dec-15 00:20N 17°27' W 062°25'38 6.5
2017-Dec-14 18:29N 17°07' W 061°51'0 0.0
2017-Dec-14 18:00N 17°07' W 061°51'0 0.0
2017-Dec-14 17:28N 17°07' W 061°51'0 0.0
2017-Dec-14 17:00N 17°07' W 061°51'0 0.0
2017-Dec-14 16:26N 17°07' W 061°51'0 0.0
2017-Dec-14 15:57N 17°07' W 061°51'0 0.0
2017-Dec-14 15:00N 17°07' W 061°51'0 0.0
2017-Dec-14 14:28N 17°07' W 061°51'0 0.0
2017-Dec-14 14:00N 17°07' W 061°51'0 0.0
2017-Dec-14 13:27N 17°07' W 061°51'0 0.0
2017-Dec-14 12:59N 17°07' W 061°51'0 0.3
2017-Dec-14 12:30N 17°07' W 061°51'3 5.8
2017-Dec-14 12:00N 17°08' W 061°54'611.5
2017-Dec-14 11:30N 17°11' W 061°59'816.4
2017-Dec-14 11:00N 17°14' W 062°07'817.0
2017-Dec-14 10:30N 17°18' W 062°15'816.8
2017-Dec-14 10:00N 17°22' W 062°23'816.7
2017-Dec-14 09:30N 17°26' W 062°31'1217.0
2017-Dec-14 08:47N 17°31' W 062°42'516.4
2017-Dec-14 08:30N 17°33' W 062°47'1317.0
2017-Dec-14 07:44N 17°39' W 062°59'416.8
2017-Dec-14 07:29N 17°41' W 063°03'816.5
2017-Dec-14 07:00N 17°45' W 063°10'52540.8
2017-Dec-14 07:00N 17°42' W 063°06'2025.8 100 / 161014.510.8 24.021.826.2
2017-Dec-14 06:13N 17°52' W 063°24'619.8
2017-Dec-14 05:56N 17°53' W 063°30'1020.1
2017-Dec-14 05:28N 17°56' W 063°40'7611.6
2017-Dec-13 22:56N 18°20' W 064°55'0 0.0
2017-Dec-13 22:05N 18°20' W 064°55'0 0.0
2017-Dec-13 21:59N 18°20' W 064°55'0 0.0
2017-Dec-13 21:26N 18°20' W 064°55'0 0.0
2017-Dec-13 20:59N 18°20' W 064°55'0 0.0
2017-Dec-13 20:29N 18°20' W 064°55'0 0.0
2017-Dec-13 19:59N 18°20' W 064°55'0 0.0
2017-Dec-13 19:29N 18°20' W 064°55'0 0.0
2017-Dec-13 18:59N 18°20' W 064°55'0 0.0
2017-Dec-13 12:51N 18°20' W 064°55'0 0.5
2017-Dec-13 12:30N 18°20' W 064°55'2 4.1
2017-Dec-13 12:00N 18°18' W 064°55'510.9
2017-Dec-13 11:31N 18°17' W 065°01'816.5
2017-Dec-13 11:00N 18°21' W 065°09'917.5
2017-Dec-13 10:29N 18°25' W 065°17'4216.8
2017-Dec-13 08:00N 18°48' W 065°54'29819.8 180 / 81012.510.8 24.021.826.2
2017-Dec-12 17:00N 21°24' W 070°24'13527.0 180 / 81012.210.8 24.021.826.2
2017-Dec-12 12:00N 22°06' W 072°42'6513.0 010 / 51014.210.8 24.021.826.2
2017-Dec-12 07:00N 22°48' W 073°36'24710.3 010 / 351012.210.8 22.018.926.4
2017-Dec-11 07:00N 25°42' W 076°48'13719.3 350 / 351020.410.8 22.018.926.4
2017-Dec-10 23:53N 26°12' W 079°17'719.2
2017-Dec-10 23:30N 26°12' W 079°25'2519.4
2017-Dec-10 22:13N 26°08' W 079°53'418.9
2017-Dec-10 22:00N 26°06' W 079°57'714.6
2017-Dec-10 21:30N 26°05' W 080°05'2 4.5
2017-Dec-10 20:59N 26°06' W 080°07'0 0.0
2017-Dec-10 20:29N 26°06' W 080°07'0 0.0
2017-Dec-10 19:59N 26°06' W 080°07'0 0.0
2017-Dec-10 19:29N 26°06' W 080°07'0 0.0
2017-Dec-10 18:59N 26°06' W 080°07'0 0.0
2017-Dec-10 18:29N 26°06' W 080°07'0 0.0
2017-Dec-10 17:56N 26°06' W 080°07'0 0.0
2017-Dec-10 17:26N 26°06' W 080°07'0 0.0
2017-Dec-10 16:56N 26°06' W 080°07'0 0.0
2017-Dec-10 16:23N 26°06' W 080°07'0 0.0
2017-Dec-10 15:53N 26°06' W 080°07'0 0.0
2017-Dec-10 15:29N 26°06' W 080°07'0 0.0
2017-Dec-10 14:56N 26°06' W 080°07'0 0.0
2017-Dec-10 14:23N 26°06' W 080°07'0 0.0
2017-Dec-10 13:56N 26°06' W 080°07'0 0.0
2017-Dec-10 13:26N 26°06' W 080°07'0 0.0
2017-Dec-10 12:56N 26°06' W 080°07'0 0.0
2017-Dec-10 12:26N 26°06' W 080°07'0 0.0
2017-Dec-10 11:56N 26°06' W 080°07'0 0.0
2017-Dec-10 11:26N 26°06' W 080°07'0 0.0
2017-Dec-10 11:00N 26°06' W 080°07'0 0.9
2017-Dec-10 10:30N 26°06' W 080°07'4 8.3
2017-Dec-10 10:00N 26°06' W 080°02'510.1
2017-Dec-10 09:30N 26°03' W 079°57'815.9
2017-Dec-10 09:00N 25°58' W 079°51'918.6
2017-Dec-10 08:30N 25°48' W 079°50'1019.0
2017-Dec-10 08:00N 25°39' W 079°52'918.9
2017-Dec-10 07:31N 25°30' W 079°53'918.7
2017-Dec-10 07:00N 25°21' W 079°55'7314.5
2017-Dec-10 02:00N 24°18' W 080°36'41218.4 350 / 351017.910.8 22.018.926.4
2017-Dec-09 03:36N 20°39' W 086°54'223.3
2017-Dec-09 03:31N 20°37' W 086°55'917.1
2017-Dec-09 03:00N 20°29' W 086°59'0 0.8
2017-Dec-09 02:28N 20°29' W 086°59'0 0.0
2017-Dec-09 01:58N 20°29' W 086°59'0 0.0
2017-Dec-09 01:28N 20°29' W 086°59'0 0.0
2017-Dec-09 00:58N 20°29' W 086°59'0 0.0
2017-Dec-09 00:25N 20°29' W 086°59'0 0.0
2017-Dec-08 23:58N 20°29' W 086°59'0 0.0
2017-Dec-08 23:28N 20°29' W 086°59'0 0.0
2017-Dec-08 22:58N 20°29' W 086°59'0 0.0
2017-Dec-08 22:28N 20°29' W 086°59'0 0.0
2017-Dec-08 21:58N 20°29' W 086°59'0 0.0
2017-Dec-08 21:28N 20°29' W 086°59'0 0.0
2017-Dec-08 20:58N 20°29' W 086°59'0 0.0
2017-Dec-08 20:28N 20°29' W 086°59'0 0.0
2017-Dec-08 19:58N 20°29' W 086°59'0 0.0
2017-Dec-08 19:28N 20°29' W 086°59'0 0.0
2017-Dec-08 18:58N 20°29' W 086°59'0 0.0
2017-Dec-08 18:28N 20°29' W 086°59'0 0.0
2017-Dec-08 17:58N 20°29' W 086°59'0 0.0
2017-Dec-08 17:28N 20°29' W 086°59'0 0.0
2017-Dec-08 16:52N 20°29' W 086°59'0 0.0
2017-Dec-08 16:28N 20°29' W 086°59'0 0.0
2017-Dec-08 15:58N 20°29' W 086°59'0 0.0
2017-Dec-08 15:28N 20°29' W 086°59'0 0.0
2017-Dec-08 14:58N 20°29' W 086°59'0 0.5
2017-Dec-08 14:30N 20°29' W 086°59'2 3.5
2017-Dec-08 14:01N 20°30' W 087°00'3 6.3
2017-Dec-08 13:30N 20°33' W 086°59'714.2
2017-Dec-08 13:00N 20°38' W 086°53'714.2
2017-Dec-08 12:30N 20°40' W 086°46'  
Track history (hours):
 
Tides and Currents Weather Stations Pressure Air Temp Water Temp Dewpoint Dewpoint Depression Visibility Wind Speed Wind Dir Waves Ship Positions

Regal Princess

Last reported at 2017-Dec-18 08:00 UTC. Time now 2017-Dec-18 12:35 UTC.
Position N 25°36' W 076°30'.

Length 330 m; draft 8.5 m.

Type: Ship. MMSI: 310674000.

Wind from 060 at 16 knots

Barometer 1021.9 mb
Air temperature 25.0 ° C
Visibility: greater than 10.8 NM
Dewpoint 21.2 ° C
Water temperature 25.4 ° C

Date/timePositionNaut miles runAvg speedWind from/ knotsBaromVisibWave heightAir tempDewpointWater temp
2017-Dec-18 08:00N 25°36' W 076°30'10020.0 060 / 161021.910.8 25.021.225.4
2017-Dec-18 03:00N 26°00' W 078°18'6019.4 080 / 161023.910.8 25.021.225.4
2017-Dec-17 23:52N 26°10' W 079°24'719.5
2017-Dec-17 23:30N 26°09' W 079°32'1019.2
2017-Dec-17 23:00N 26°08' W 079°43'918.8
2017-Dec-17 22:30N 26°07' W 079°53'816.5
2017-Dec-17 22:00N 26°06' W 080°03'4 8.2
2017-Dec-17 21:30N 26°06' W 080°07'0 0.3
2017-Dec-17 20:58N 26°06' W 080°07'0 0.0
2017-Dec-17 20:28N 26°06' W 080°07'0 0.0
2017-Dec-17 19:58N 26°06' W 080°07'0 0.0
2017-Dec-17 19:28N 26°06' W 080°07'0 0.0
2017-Dec-17 18:58N 26°06' W 080°07'0 0.0
2017-Dec-17 18:28N 26°06' W 080°07'0 0.0
2017-Dec-17 17:58N 26°06' W 080°07'0 0.0
2017-Dec-17 17:28N 26°06' W 080°07'0 0.0
2017-Dec-17 16:58N 26°06' W 080°07'0 0.0
2017-Dec-17 16:28N 26°06' W 080°07'0 0.0
2017-Dec-17 15:58N 26°06' W 080°07'0 0.0
2017-Dec-17 15:28N 26°06' W 080°07'0 0.0
2017-Dec-17 14:58N 26°06' W 080°07'0 0.0
2017-Dec-17 14:28N 26°06' W 080°07'0 0.0
2017-Dec-17 13:58N 26°06' W 080°07'0 0.0
2017-Dec-17 13:28N 26°06' W 080°07'0 0.0
2017-Dec-17 12:58N 26°06' W 080°07'0 0.0
2017-Dec-17 12:29N 26°06' W 080°07'0 0.6
2017-Dec-17 12:00N 26°05' W 080°07'4 7.9
2017-Dec-17 11:30N 26°06' W 080°03'612.2
2017-Dec-17 11:01N 26°06' W 079°56'714.0
2017-Dec-17 10:30N 26°08' W 079°48'713.7
2017-Dec-17 10:00N 26°09' W 079°41'713.7
2017-Dec-17 09:30N 26°11' W 079°33'817.1
2017-Dec-17 09:00N 26°13' W 079°24'23132.9
2017-Dec-17 02:00N 23°30' W 076°24'10114.4 040 / 231021.610.8 24.019.425.0
2017-Dec-16 19:00N 23°48' W 074°36'39817.3 050 / 141018.510.8 26.022.327.0
2017-Dec-15 20:00N 21°00' W 068°06'13218.9 070 / 151017.510.8 26.022.327.0
2017-Dec-15 13:00N 20°00' W 066°00'17120.2 070 / 151019.810.8 26.022.327.0
2017-Dec-15 04:32N 18°16' W 063°37'119.4
2017-Dec-15 04:28N 18°15' W 063°36'1020.3
2017-Dec-15 03:59N 18°08' W 063°28'2919.8
2017-Dec-15 02:30N 17°50' W 063°03'4420.2
2017-Dec-15 00:20N 17°27' W 062°25'38 6.5
2017-Dec-14 18:29N 17°07' W 061°51'0 0.0
2017-Dec-14 18:00N 17°07' W 061°51'0 0.0
2017-Dec-14 17:28N 17°07' W 061°51'0 0.0
2017-Dec-14 17:00N 17°07' W 061°51'0 0.0
2017-Dec-14 16:26N 17°07' W 061°51'0 0.0
2017-Dec-14 15:57N 17°07' W 061°51'0 0.0
2017-Dec-14 15:00N 17°07' W 061°51'0 0.0
2017-Dec-14 14:28N 17°07' W 061°51'0 0.0
2017-Dec-14 14:00N 17°07' W 061°51'0 0.0
2017-Dec-14 13:27N 17°07' W 061°51'0 0.0
2017-Dec-14 12:59N 17°07' W 061°51'0 0.3
2017-Dec-14 12:30N 17°07' W 061°51'3 5.8
2017-Dec-14 12:00N 17°08' W 061°54'611.5
2017-Dec-14 11:30N 17°11' W 061°59'816.4
2017-Dec-14 11:00N 17°14' W 062°07'817.0
2017-Dec-14 10:30N 17°18' W 062°15'816.8
2017-Dec-14 10:00N 17°22' W 062°23'816.7
2017-Dec-14 09:30N 17°26' W 062°31'1217.0
2017-Dec-14 08:47N 17°31' W 062°42'516.4
2017-Dec-14 08:30N 17°33' W 062°47'1317.0
2017-Dec-14 07:44N 17°39' W 062°59'416.8
2017-Dec-14 07:29N 17°41' W 063°03'816.5
2017-Dec-14 07:00N 17°45' W 063°10'52540.8
2017-Dec-14 07:00N 17°42' W 063°06'2025.8 100 / 161014.510.8 24.021.826.2
2017-Dec-14 06:13N 17°52' W 063°24'619.8
2017-Dec-14 05:56N 17°53' W 063°30'1020.1
2017-Dec-14 05:28N 17°56' W 063°40'7611.6
2017-Dec-13 22:56N 18°20' W 064°55'0 0.0
2017-Dec-13 22:05N 18°20' W 064°55'0 0.0
2017-Dec-13 21:59N 18°20' W 064°55'0 0.0
2017-Dec-13 21:26N 18°20' W 064°55'0 0.0
2017-Dec-13 20:59N 18°20' W 064°55'0 0.0
2017-Dec-13 20:29N 18°20' W 064°55'0 0.0
2017-Dec-13 19:59N 18°20' W 064°55'0 0.0
2017-Dec-13 19:29N 18°20' W 064°55'0 0.0
2017-Dec-13 18:59N 18°20' W 064°55'0 0.0
2017-Dec-13 12:51N 18°20' W 064°55'0 0.5
2017-Dec-13 12:30N 18°20' W 064°55'2 4.1
2017-Dec-13 12:00N 18°18' W 064°55'510.9
2017-Dec-13 11:31N 18°17' W 065°01'816.5
2017-Dec-13 11:00N 18°21' W 065°09'917.5
2017-Dec-13 10:29N 18°25' W 065°17'4216.8
2017-Dec-13 08:00N 18°48' W 065°54'29819.8 180 / 81012.510.8 24.021.826.2
2017-Dec-12 17:00N 21°24' W 070°24'13527.0 180 / 81012.210.8 24.021.826.2
2017-Dec-12 12:00N 22°06' W 072°42'6513.0 010 / 51014.210.8 24.021.826.2
2017-Dec-12 07:00N 22°48' W 073°36'24710.3 010 / 351012.210.8 22.018.926.4
2017-Dec-11 07:00N 25°42' W 076°48'13719.3 350 / 351020.410.8 22.018.926.4
2017-Dec-10 23:53N 26°12' W 079°17'719.2
2017-Dec-10 23:30N 26°12' W 079°25'2519.4
2017-Dec-10 22:13N 26°08' W 079°53'418.9
2017-Dec-10 22:00N 26°06' W 079°57'714.6
2017-Dec-10 21:30N 26°05' W 080°05'2 4.5
2017-Dec-10 20:59N 26°06' W 080°07'0 0.0
2017-Dec-10 20:29N 26°06' W 080°07'0 0.0
2017-Dec-10 19:59N 26°06' W 080°07'0 0.0
2017-Dec-10 19:29N 26°06' W 080°07'0 0.0
2017-Dec-10 18:59N 26°06' W 080°07'0 0.0
2017-Dec-10 18:29N 26°06' W 080°07'0 0.0
2017-Dec-10 17:56N 26°06' W 080°07'0 0.0
2017-Dec-10 17:26N 26°06' W 080°07'0 0.0
2017-Dec-10 16:56N 26°06' W 080°07'0 0.0
2017-Dec-10 16:23N 26°06' W 080°07'0 0.0
2017-Dec-10 15:53N 26°06' W 080°07'0 0.0
2017-Dec-10 15:29N 26°06' W 080°07'0 0.0
2017-Dec-10 14:56N 26°06' W 080°07'0 0.0
2017-Dec-10 14:23N 26°06' W 080°07'0 0.0
2017-Dec-10 13:56N 26°06' W 080°07'0 0.0
2017-Dec-10 13:26N 26°06' W 080°07'0 0.0
2017-Dec-10 12:56N 26°06' W 080°07'0 0.0
2017-Dec-10 12:26N 26°06' W 080°07'0 0.0
2017-Dec-10 11:56N 26°06' W 080°07'0 0.0
2017-Dec-10 11:26N 26°06' W 080°07'0 0.0
2017-Dec-10 11:00N 26°06' W 080°07'0 0.9
2017-Dec-10 10:30N 26°06' W 080°07'4 8.3
2017-Dec-10 10:00N 26°06' W 080°02'510.1
2017-Dec-10 09:30N 26°03' W 079°57'815.9
2017-Dec-10 09:00N 25°58' W 079°51'918.6
2017-Dec-10 08:30N 25°48' W 079°50'1019.0
2017-Dec-10 08:00N 25°39' W 079°52'918.9
2017-Dec-10 07:31N 25°30' W 079°53'918.7
2017-Dec-10 07:00N 25°21' W 079°55'7314.5
2017-Dec-10 02:00N 24°18' W 080°36'41218.4 350 / 351017.910.8 22.018.926.4
2017-Dec-09 03:36N 20°39' W 086°54'223.3
2017-Dec-09 03:31N 20°37' W 086°55'917.1
2017-Dec-09 03:00N 20°29' W 086°59'0 0.8
2017-Dec-09 02:28N 20°29' W 086°59'0 0.0
2017-Dec-09 01:58N 20°29' W 086°59'0 0.0
2017-Dec-09 01:28N 20°29' W 086°59'0 0.0
2017-Dec-09 00:58N 20°29' W 086°59'0 0.0
2017-Dec-09 00:25N 20°29' W 086°59'0 0.0
2017-Dec-08 23:58N 20°29' W 086°59'0 0.0
2017-Dec-08 23:28N 20°29' W 086°59'0 0.0
2017-Dec-08 22:58N 20°29' W 086°59'0 0.0
2017-Dec-08 22:28N 20°29' W 086°59'0 0.0
2017-Dec-08 21:58N 20°29' W 086°59'0 0.0
2017-Dec-08 21:28N 20°29' W 086°59'0 0.0
2017-Dec-08 20:58N 20°29' W 086°59'0 0.0
2017-Dec-08 20:28N 20°29' W 086°59'0 0.0
2017-Dec-08 19:58N 20°29' W 086°59'0 0.0
2017-Dec-08 19:28N 20°29' W 086°59'0 0.0
2017-Dec-08 18:58N 20°29' W 086°59'0 0.0
2017-Dec-08 18:28N 20°29' W 086°59'0 0.0
2017-Dec-08 17:58N 20°29' W 086°59'0 0.0
2017-Dec-08 17:28N 20°29' W 086°59'0 0.0
2017-Dec-08 16:52N 20°29' W 086°59'0 0.0
2017-Dec-08 16:28N 20°29' W 086°59'0 0.0
2017-Dec-08 15:58N 20°29' W 086°59'0 0.0
2017-Dec-08 15:28N 20°29' W 086°59'0 0.0
2017-Dec-08 14:58N 20°29' W 086°59'0 0.5
2017-Dec-08 14:30N 20°29' W 086°59'2 3.5
2017-Dec-08 14:01N 20°30' W 087°00'3 6.3
2017-Dec-08 13:30N 20°33' W 086°59'714.2
2017-Dec-08 13:00N 20°38' W 086°53'714.2
2017-Dec-08 12:30N 20°40' W 086°46'  

Dump ship's entire track history